sensor_id;sensor_type;location;lat;lon;timestamp;P1;durP1;ratioP1;P2;durP2;ratioP2
72649;SDS011;61467;50.674;4.618;2024-01-11T00:00:46;28.60;;;11.30;;
72649;SDS011;61467;50.674;4.618;2024-01-11T00:03:15;29.33;;;11.40;;
72649;SDS011;61467;50.674;4.618;2024-01-11T00:05:44;24.88;;;11.27;;
72649;SDS011;61467;50.674;4.618;2024-01-11T00:08:11;27.02;;;11.75;;
72649;SDS011;61467;50.674;4.618;2024-01-11T00:10:45;27.02;;;11.93;;
72649;SDS011;61467;50.674;4.618;2024-01-11T00:13:12;30.10;;;11.00;;
72649;SDS011;61467;50.674;4.618;2024-01-11T00:15:39;24.15;;;10.70;;
72649;SDS011;61467;50.674;4.618;2024-01-11T00:18:06;22.70;;;11.10;;
72649;SDS011;61467;50.674;4.618;2024-01-11T00:20:36;23.67;;;10.75;;
72649;SDS011;61467;50.674;4.618;2024-01-11T00:23:04;28.80;;;11.55;;
72649;SDS011;61467;50.674;4.618;2024-01-11T00:25:31;23.63;;;10.07;;
72649;SDS011;61467;50.674;4.618;2024-01-11T00:27:58;23.45;;;10.02;;
72649;SDS011;61467;50.674;4.618;2024-01-11T00:30:26;20.98;;;11.32;;
72649;SDS011;61467;50.674;4.618;2024-01-11T00:32:53;24.13;;;11.05;;
72649;SDS011;61467;50.674;4.618;2024-01-11T00:35:21;26.08;;;10.65;;
72649;SDS011;61467;50.674;4.618;2024-01-11T00:37:47;22.50;;;10.37;;
72649;SDS011;61467;50.674;4.618;2024-01-11T00:40:16;23.67;;;11.05;;
72649;SDS011;61467;50.674;4.618;2024-01-11T00:42:43;29.02;;;11.60;;
72649;SDS011;61467;50.674;4.618;2024-01-11T00:45:09;23.75;;;10.70;;
72649;SDS011;61467;50.674;4.618;2024-01-11T00:47:36;24.75;;;11.30;;
72649;SDS011;61467;50.674;4.618;2024-01-11T00:50:04;22.73;;;10.97;;
72649;SDS011;61467;50.674;4.618;2024-01-11T00:52:32;22.02;;;10.00;;
72649;SDS011;61467;50.674;4.618;2024-01-11T00:54:59;21.73;;;10.40;;
72649;SDS011;61467;50.674;4.618;2024-01-11T00:57:27;21.73;;;10.18;;
72649;SDS011;61467;50.674;4.618;2024-01-11T00:59:54;24.42;;;11.27;;
72649;SDS011;61467;50.674;4.618;2024-01-11T01:02:21;24.50;;;9.77;;
72649;SDS011;61467;50.674;4.618;2024-01-11T01:04:47;23.20;;;10.27;;
72649;SDS011;61467;50.674;4.618;2024-01-11T01:07:14;27.73;;;12.50;;
72649;SDS011;61467;50.674;4.618;2024-01-11T01:09:41;23.77;;;10.68;;
72649;SDS011;61467;50.674;4.618;2024-01-11T01:12:10;24.45;;;10.90;;
72649;SDS011;61467;50.674;4.618;2024-01-11T01:14:40;26.20;;;10.13;;
72649;SDS011;61467;50.674;4.618;2024-01-11T01:17:07;24.33;;;10.40;;
72649;SDS011;61467;50.674;4.618;2024-01-11T01:19:34;25.13;;;11.75;;
72649;SDS011;61467;50.674;4.618;2024-01-11T01:22:00;22.35;;;10.40;;
72649;SDS011;61467;50.674;4.618;2024-01-11T01:24:27;25.63;;;10.85;;
72649;SDS011;61467;50.674;4.618;2024-01-11T01:26:53;26.13;;;11.32;;
72649;SDS011;61467;50.674;4.618;2024-01-11T01:29:20;24.95;;;10.68;;
72649;SDS011;61467;50.674;4.618;2024-01-11T01:31:48;24.20;;;11.32;;
72649;SDS011;61467;50.674;4.618;2024-01-11T01:34:15;28.35;;;11.50;;
72649;SDS011;61467;50.674;4.618;2024-01-11T01:36:42;26.00;;;10.95;;
72649;SDS011;61467;50.674;4.618;2024-01-11T01:39:09;22.57;;;10.43;;
72649;SDS011;61467;50.674;4.618;2024-01-11T01:41:36;25.55;;;10.18;;
72649;SDS011;61467;50.674;4.618;2024-01-11T01:44:03;25.55;;;11.15;;
72649;SDS011;61467;50.674;4.618;2024-01-11T01:46:31;25.75;;;11.10;;
72649;SDS011;61467;50.674;4.618;2024-01-11T01:49:00;21.50;;;9.93;;
72649;SDS011;61467;50.674;4.618;2024-01-11T01:51:29;25.17;;;11.27;;
72649;SDS011;61467;50.674;4.618;2024-01-11T01:53:57;23.92;;;11.68;;
72649;SDS011;61467;50.674;4.618;2024-01-11T01:56:24;25.80;;;10.70;;
72649;SDS011;61467;50.674;4.618;2024-01-11T01:58:52;26.77;;;10.13;;
72649;SDS011;61467;50.674;4.618;2024-01-11T02:01:20;21.90;;;9.77;;
72649;SDS011;61467;50.674;4.618;2024-01-11T02:03:49;33.80;;;10.88;;
72649;SDS011;61467;50.674;4.618;2024-01-11T02:06:18;23.33;;;10.73;;
72649;SDS011;61467;50.674;4.618;2024-01-11T02:08:48;25.85;;;10.85;;
72649;SDS011;61467;50.674;4.618;2024-01-11T02:11:17;24.45;;;11.00;;
72649;SDS011;61467;50.674;4.618;2024-01-11T02:13:46;29.33;;;11.85;;
72649;SDS011;61467;50.674;4.618;2024-01-11T02:16:13;23.57;;;11.00;;
72649;SDS011;61467;50.674;4.618;2024-01-11T02:18:41;21.63;;;10.30;;
72649;SDS011;61467;50.674;4.618;2024-01-11T02:21:08;24.00;;;10.38;;
72649;SDS011;61467;50.674;4.618;2024-01-11T02:23:40;25.55;;;11.38;;
72649;SDS011;61467;50.674;4.618;2024-01-11T02:26:13;27.95;;;11.00;;
72649;SDS011;61467;50.674;4.618;2024-01-11T02:28:43;23.43;;;10.97;;
72649;SDS011;61467;50.674;4.618;2024-01-11T02:31:10;27.92;;;11.25;;
72649;SDS011;61467;50.674;4.618;2024-01-11T02:33:38;24.25;;;9.75;;
72649;SDS011;61467;50.674;4.618;2024-01-11T02:36:05;27.48;;;11.55;;
72649;SDS011;61467;50.674;4.618;2024-01-11T02:38:32;24.33;;;11.27;;
72649;SDS011;61467;50.674;4.618;2024-01-11T02:41:00;24.33;;;10.60;;
72649;SDS011;61467;50.674;4.618;2024-01-11T02:43:29;23.27;;;11.30;;
72649;SDS011;61467;50.674;4.618;2024-01-11T02:45:55;24.63;;;10.85;;
72649;SDS011;61467;50.674;4.618;2024-01-11T02:48:27;27.13;;;10.45;;
72649;SDS011;61467;50.674;4.618;2024-01-11T02:50:54;29.58;;;12.02;;
72649;SDS011;61467;50.674;4.618;2024-01-11T02:53:21;23.42;;;11.23;;
72649;SDS011;61467;50.674;4.618;2024-01-11T02:55:48;26.20;;;11.10;;
72649;SDS011;61467;50.674;4.618;2024-01-11T02:58:16;23.20;;;10.32;;
72649;SDS011;61467;50.674;4.618;2024-01-11T03:00:44;24.45;;;11.00;;
72649;SDS011;61467;50.674;4.618;2024-01-11T03:03:12;27.58;;;11.32;;
72649;SDS011;61467;50.674;4.618;2024-01-11T03:05:39;28.90;;;11.80;;
72649;SDS011;61467;50.674;4.618;2024-01-11T03:08:06;24.08;;;11.15;;
72649;SDS011;61467;50.674;4.618;2024-01-11T03:10:33;28.35;;;11.40;;
72649;SDS011;61467;50.674;4.618;2024-01-11T03:13:00;26.73;;;10.80;;
72649;SDS011;61467;50.674;4.618;2024-01-11T03:15:26;28.52;;;11.77;;
72649;SDS011;61467;50.674;4.618;2024-01-11T03:17:55;25.37;;;12.37;;
72649;SDS011;61467;50.674;4.618;2024-01-11T03:20:22;21.85;;;10.95;;
72649;SDS011;61467;50.674;4.618;2024-01-11T03:22:49;26.92;;;11.05;;
72649;SDS011;61467;50.674;4.618;2024-01-11T03:25:17;25.13;;;11.65;;
72649;SDS011;61467;50.674;4.618;2024-01-11T03:27:44;26.77;;;11.52;;
72649;SDS011;61467;50.674;4.618;2024-01-11T03:30:12;27.37;;;11.07;;
72649;SDS011;61467;50.674;4.618;2024-01-11T03:32:39;24.75;;;10.55;;
72649;SDS011;61467;50.674;4.618;2024-01-11T03:35:08;24.67;;;10.20;;
72649;SDS011;61467;50.674;4.618;2024-01-11T03:37:36;23.40;;;9.77;;
72649;SDS011;61467;50.674;4.618;2024-01-11T03:40:03;26.27;;;11.70;;
72649;SDS011;61467;50.674;4.618;2024-01-11T03:42:31;23.07;;;10.40;;
72649;SDS011;61467;50.674;4.618;2024-01-11T03:44:58;24.52;;;10.45;;
72649;SDS011;61467;50.674;4.618;2024-01-11T03:47:25;21.50;;;10.15;;
72649;SDS011;61467;50.674;4.618;2024-01-11T03:49:52;22.75;;;10.13;;
72649;SDS011;61467;50.674;4.618;2024-01-11T03:52:20;23.85;;;10.95;;
72649;SDS011;61467;50.674;4.618;2024-01-11T03:54:47;28.85;;;11.57;;
72649;SDS011;61467;50.674;4.618;2024-01-11T03:57:14;29.58;;;11.13;;
72649;SDS011;61467;50.674;4.618;2024-01-11T03:59:41;28.73;;;10.65;;
72649;SDS011;61467;50.674;4.618;2024-01-11T04:02:08;24.20;;;10.48;;
72649;SDS011;61467;50.674;4.618;2024-01-11T04:04:35;25.42;;;10.63;;
72649;SDS011;61467;50.674;4.618;2024-01-11T04:07:02;24.40;;;10.40;;
72649;SDS011;61467;50.674;4.618;2024-01-11T04:09:32;23.80;;;10.57;;
72649;SDS011;61467;50.674;4.618;2024-01-11T04:11:59;22.13;;;11.00;;
72649;SDS011;61467;50.674;4.618;2024-01-11T04:14:26;24.13;;;10.50;;
72649;SDS011;61467;50.674;4.618;2024-01-11T04:16:52;23.88;;;11.23;;
72649;SDS011;61467;50.674;4.618;2024-01-11T04:19:19;24.10;;;10.80;;
72649;SDS011;61467;50.674;4.618;2024-01-11T04:21:46;22.92;;;9.73;;
72649;SDS011;61467;50.674;4.618;2024-01-11T04:24:13;22.45;;;10.80;;
72649;SDS011;61467;50.674;4.618;2024-01-11T04:26:41;25.73;;;10.73;;
72649;SDS011;61467;50.674;4.618;2024-01-11T04:29:08;24.15;;;9.77;;
72649;SDS011;61467;50.674;4.618;2024-01-11T04:31:35;23.00;;;10.20;;
72649;SDS011;61467;50.674;4.618;2024-01-11T04:34:02;26.48;;;10.40;;
72649;SDS011;61467;50.674;4.618;2024-01-11T04:36:30;24.63;;;11.10;;
72649;SDS011;61467;50.674;4.618;2024-01-11T04:38:58;21.67;;;10.45;;
72649;SDS011;61467;50.674;4.618;2024-01-11T04:41:26;24.08;;;10.55;;
72649;SDS011;61467;50.674;4.618;2024-01-11T04:43:54;25.90;;;10.50;;
72649;SDS011;61467;50.674;4.618;2024-01-11T04:46:21;22.48;;;10.40;;
72649;SDS011;61467;50.674;4.618;2024-01-11T04:48:50;25.15;;;10.57;;
72649;SDS011;61467;50.674;4.618;2024-01-11T04:51:17;24.88;;;10.18;;
72649;SDS011;61467;50.674;4.618;2024-01-11T04:53:45;23.45;;;10.57;;
72649;SDS011;61467;50.674;4.618;2024-01-11T04:56:12;20.35;;;10.75;;
72649;SDS011;61467;50.674;4.618;2024-01-11T04:58:41;28.58;;;10.88;;
72649;SDS011;61467;50.674;4.618;2024-01-11T05:01:12;25.50;;;11.18;;
72649;SDS011;61467;50.674;4.618;2024-01-11T05:03:40;24.52;;;11.18;;
72649;SDS011;61467;50.674;4.618;2024-01-11T05:06:07;25.83;;;11.13;;
72649;SDS011;61467;50.674;4.618;2024-01-11T05:08:33;26.77;;;11.77;;
72649;SDS011;61467;50.674;4.618;2024-01-11T05:11:00;28.27;;;11.95;;
72649;SDS011;61467;50.674;4.618;2024-01-11T05:13:27;22.92;;;11.05;;
72649;SDS011;61467;50.674;4.618;2024-01-11T05:15:54;22.70;;;11.73;;
72649;SDS011;61467;50.674;4.618;2024-01-11T05:18:22;25.02;;;11.20;;
72649;SDS011;61467;50.674;4.618;2024-01-11T05:20:51;21.67;;;10.35;;
72649;SDS011;61467;50.674;4.618;2024-01-11T05:23:18;21.77;;;10.30;;
72649;SDS011;61467;50.674;4.618;2024-01-11T05:25:45;27.40;;;11.73;;
72649;SDS011;61467;50.674;4.618;2024-01-11T05:28:13;27.33;;;12.27;;
72649;SDS011;61467;50.674;4.618;2024-01-11T05:30:39;27.83;;;11.35;;
72649;SDS011;61467;50.674;4.618;2024-01-11T05:33:06;24.10;;;11.02;;
72649;SDS011;61467;50.674;4.618;2024-01-11T05:35:34;24.02;;;11.40;;
72649;SDS011;61467;50.674;4.618;2024-01-11T05:38:01;25.92;;;11.00;;
72649;SDS011;61467;50.674;4.618;2024-01-11T05:40:28;30.52;;;12.18;;
72649;SDS011;61467;50.674;4.618;2024-01-11T05:42:55;25.98;;;11.52;;
72649;SDS011;61467;50.674;4.618;2024-01-11T05:45:22;28.95;;;12.95;;
72649;SDS011;61467;50.674;4.618;2024-01-11T05:47:49;24.67;;;11.52;;
72649;SDS011;61467;50.674;4.618;2024-01-11T05:50:16;28.27;;;11.35;;
72649;SDS011;61467;50.674;4.618;2024-01-11T05:52:44;23.77;;;11.90;;
72649;SDS011;61467;50.674;4.618;2024-01-11T05:55:11;23.50;;;11.10;;
72649;SDS011;61467;50.674;4.618;2024-01-11T05:57:38;26.10;;;10.30;;
72649;SDS011;61467;50.674;4.618;2024-01-11T06:00:07;22.30;;;11.23;;
72649;SDS011;61467;50.674;4.618;2024-01-11T06:02:35;31.30;;;12.73;;
72649;SDS011;61467;50.674;4.618;2024-01-11T06:05:03;25.23;;;11.77;;
72649;SDS011;61467;50.674;4.618;2024-01-11T06:07:31;25.77;;;11.70;;
72649;SDS011;61467;50.674;4.618;2024-01-11T06:09:59;26.90;;;11.45;;
72649;SDS011;61467;50.674;4.618;2024-01-11T06:12:28;24.73;;;10.65;;
72649;SDS011;61467;50.674;4.618;2024-01-11T06:14:55;30.42;;;11.48;;
72649;SDS011;61467;50.674;4.618;2024-01-11T06:17:21;25.17;;;11.38;;
72649;SDS011;61467;50.674;4.618;2024-01-11T06:19:50;24.25;;;11.93;;
72649;SDS011;61467;50.674;4.618;2024-01-11T06:22:20;25.35;;;11.23;;
72649;SDS011;61467;50.674;4.618;2024-01-11T06:24:47;24.13;;;11.88;;
72649;SDS011;61467;50.674;4.618;2024-01-11T06:27:16;28.90;;;12.68;;
72649;SDS011;61467;50.674;4.618;2024-01-11T06:29:42;26.00;;;12.13;;
72649;SDS011;61467;50.674;4.618;2024-01-11T06:32:09;30.63;;;12.68;;
72649;SDS011;61467;50.674;4.618;2024-01-11T06:34:36;23.93;;;12.53;;
72649;SDS011;61467;50.674;4.618;2024-01-11T06:37:03;30.40;;;11.70;;
72649;SDS011;61467;50.674;4.618;2024-01-11T06:39:30;28.10;;;12.90;;
72649;SDS011;61467;50.674;4.618;2024-01-11T06:41:56;24.95;;;12.05;;
72649;SDS011;61467;50.674;4.618;2024-01-11T06:44:25;31.33;;;12.45;;
72649;SDS011;61467;50.674;4.618;2024-01-11T06:46:52;24.25;;;11.68;;
72649;SDS011;61467;50.674;4.618;2024-01-11T06:49:19;24.63;;;11.05;;
72649;SDS011;61467;50.674;4.618;2024-01-11T06:51:46;23.30;;;11.38;;
72649;SDS011;61467;50.674;4.618;2024-01-11T06:54:13;26.20;;;11.98;;
72649;SDS011;61467;50.674;4.618;2024-01-11T06:56:40;24.63;;;11.15;;
72649;SDS011;61467;50.674;4.618;2024-01-11T06:59:09;24.23;;;11.20;;
72649;SDS011;61467;50.674;4.618;2024-01-11T07:01:38;26.48;;;12.38;;
72649;SDS011;61467;50.674;4.618;2024-01-11T07:04:05;28.58;;;12.63;;
72649;SDS011;61467;50.674;4.618;2024-01-11T07:06:32;27.77;;;12.15;;
72649;SDS011;61467;50.674;4.618;2024-01-11T07:08:59;28.50;;;12.40;;
72649;SDS011;61467;50.674;4.618;2024-01-11T07:11:26;29.23;;;11.90;;
72649;SDS011;61467;50.674;4.618;2024-01-11T07:13:53;31.95;;;13.18;;
72649;SDS011;61467;50.674;4.618;2024-01-11T07:16:20;25.65;;;12.32;;
72649;SDS011;61467;50.674;4.618;2024-01-11T07:18:49;27.92;;;13.02;;
72649;SDS011;61467;50.674;4.618;2024-01-11T07:21:20;24.85;;;11.57;;
72649;SDS011;61467;50.674;4.618;2024-01-11T07:23:54;27.60;;;12.32;;
72649;SDS011;61467;50.674;4.618;2024-01-11T07:26:22;26.30;;;11.88;;
72649;SDS011;61467;50.674;4.618;2024-01-11T07:28:49;28.52;;;12.65;;
72649;SDS011;61467;50.674;4.618;2024-01-11T07:31:16;28.50;;;12.13;;
72649;SDS011;61467;50.674;4.618;2024-01-11T07:33:43;25.67;;;12.18;;
72649;SDS011;61467;50.674;4.618;2024-01-11T07:36:12;29.40;;;11.95;;
72649;SDS011;61467;50.674;4.618;2024-01-11T07:38:39;26.38;;;13.52;;
72649;SDS011;61467;50.674;4.618;2024-01-11T07:41:06;26.73;;;13.95;;
72649;SDS011;61467;50.674;4.618;2024-01-11T07:43:33;24.52;;;12.60;;
72649;SDS011;61467;50.674;4.618;2024-01-11T07:46:00;29.77;;;13.93;;
72649;SDS011;61467;50.674;4.618;2024-01-11T07:48:28;29.93;;;14.00;;
72649;SDS011;61467;50.674;4.618;2024-01-11T07:50:56;28.00;;;12.63;;
72649;SDS011;61467;50.674;4.618;2024-01-11T07:53:24;27.90;;;13.95;;
72649;SDS011;61467;50.674;4.618;2024-01-11T07:55:51;33.75;;;14.43;;
72649;SDS011;61467;50.674;4.618;2024-01-11T07:58:18;25.65;;;13.00;;
72649;SDS011;61467;50.674;4.618;2024-01-11T08:00:46;29.97;;;14.17;;
72649;SDS011;61467;50.674;4.618;2024-01-11T08:03:13;30.63;;;13.60;;
72649;SDS011;61467;50.674;4.618;2024-01-11T08:05:40;27.38;;;13.93;;
72649;SDS011;61467;50.674;4.618;2024-01-11T08:08:08;33.35;;;13.48;;
72649;SDS011;61467;50.674;4.618;2024-01-11T08:10:36;31.50;;;13.88;;
72649;SDS011;61467;50.674;4.618;2024-01-11T08:13:03;32.83;;;14.45;;
72649;SDS011;61467;50.674;4.618;2024-01-11T08:15:30;36.28;;;14.48;;
72649;SDS011;61467;50.674;4.618;2024-01-11T08:17:57;34.42;;;16.33;;
72649;SDS011;61467;50.674;4.618;2024-01-11T08:20:25;34.35;;;16.08;;
72649;SDS011;61467;50.674;4.618;2024-01-11T08:22:52;32.85;;;15.63;;
72649;SDS011;61467;50.674;4.618;2024-01-11T08:25:19;29.25;;;14.15;;
72649;SDS011;61467;50.674;4.618;2024-01-11T08:27:47;28.15;;;14.05;;
72649;SDS011;61467;50.674;4.618;2024-01-11T08:30:15;30.58;;;13.93;;
72649;SDS011;61467;50.674;4.618;2024-01-11T08:32:42;31.42;;;15.02;;
72649;SDS011;61467;50.674;4.618;2024-01-11T08:35:09;30.83;;;14.95;;
72649;SDS011;61467;50.674;4.618;2024-01-11T08:37:38;33.97;;;14.43;;
72649;SDS011;61467;50.674;4.618;2024-01-11T08:40:05;32.95;;;14.63;;
72649;SDS011;61467;50.674;4.618;2024-01-11T08:42:34;27.63;;;12.98;;
72649;SDS011;61467;50.674;4.618;2024-01-11T08:45:05;31.35;;;14.48;;
72649;SDS011;61467;50.674;4.618;2024-01-11T08:47:33;29.23;;;14.65;;
72649;SDS011;61467;50.674;4.618;2024-01-11T08:50:00;32.92;;;15.63;;
72649;SDS011;61467;50.674;4.618;2024-01-11T08:52:31;28.98;;;14.38;;
72649;SDS011;61467;50.674;4.618;2024-01-11T08:54:58;31.02;;;14.48;;
72649;SDS011;61467;50.674;4.618;2024-01-11T08:57:24;29.40;;;13.25;;
72649;SDS011;61467;50.674;4.618;2024-01-11T08:59:52;33.80;;;15.07;;
72649;SDS011;61467;50.674;4.618;2024-01-11T09:02:21;30.77;;;14.90;;
72649;SDS011;61467;50.674;4.618;2024-01-11T09:04:48;33.28;;;15.80;;
72649;SDS011;61467;50.674;4.618;2024-01-11T09:07:15;29.33;;;15.40;;
72649;SDS011;61467;50.674;4.618;2024-01-11T09:09:42;33.97;;;14.85;;
72649;SDS011;61467;50.674;4.618;2024-01-11T09:12:09;29.30;;;15.77;;
72649;SDS011;61467;50.674;4.618;2024-01-11T09:14:36;32.17;;;15.70;;
72649;SDS011;61467;50.674;4.618;2024-01-11T09:17:04;36.25;;;16.92;;
72649;SDS011;61467;50.674;4.618;2024-01-11T09:19:33;34.95;;;13.80;;
72649;SDS011;61467;50.674;4.618;2024-01-11T09:22:00;35.05;;;16.38;;
72649;SDS011;61467;50.674;4.618;2024-01-11T09:24:27;32.15;;;14.18;;
72649;SDS011;61467;50.674;4.618;2024-01-11T09:26:54;30.70;;;15.43;;
72649;SDS011;61467;50.674;4.618;2024-01-11T09:29:21;34.88;;;15.85;;
72649;SDS011;61467;50.674;4.618;2024-01-11T09:31:48;33.20;;;15.52;;
72649;SDS011;61467;50.674;4.618;2024-01-11T09:34:16;32.58;;;15.68;;
72649;SDS011;61467;50.674;4.618;2024-01-11T09:36:44;37.05;;;16.77;;
72649;SDS011;61467;50.674;4.618;2024-01-11T09:39:11;35.73;;;16.10;;
72649;SDS011;61467;50.674;4.618;2024-01-11T09:41:41;36.17;;;16.15;;
72649;SDS011;61467;50.674;4.618;2024-01-11T09:44:13;31.02;;;14.77;;
72649;SDS011;61467;50.674;4.618;2024-01-11T09:46:40;38.15;;;15.68;;
72649;SDS011;61467;50.674;4.618;2024-01-11T09:49:09;32.47;;;16.42;;
72649;SDS011;61467;50.674;4.618;2024-01-11T09:51:37;39.97;;;17.40;;
72649;SDS011;61467;50.674;4.618;2024-01-11T09:54:10;32.25;;;16.77;;
72649;SDS011;61467;50.674;4.618;2024-01-11T09:56:38;34.13;;;16.17;;
72649;SDS011;61467;50.674;4.618;2024-01-11T09:59:06;37.85;;;16.75;;
72649;SDS011;61467;50.674;4.618;2024-01-11T10:01:35;34.58;;;16.70;;
72649;SDS011;61467;50.674;4.618;2024-01-11T10:04:02;33.88;;;16.00;;
72649;SDS011;61467;50.674;4.618;2024-01-11T10:06:30;34.60;;;17.00;;
72649;SDS011;61467;50.674;4.618;2024-01-11T10:08:58;40.25;;;18.20;;
72649;SDS011;61467;50.674;4.618;2024-01-11T10:11:26;39.28;;;17.35;;
72649;SDS011;61467;50.674;4.618;2024-01-11T10:13:56;37.88;;;17.23;;
72649;SDS011;61467;50.674;4.618;2024-01-11T10:16:23;36.23;;;17.70;;
72649;SDS011;61467;50.674;4.618;2024-01-11T10:18:53;37.47;;;18.52;;
72649;SDS011;61467;50.674;4.618;2024-01-11T10:21:20;32.03;;;16.05;;
72649;SDS011;61467;50.674;4.618;2024-01-11T10:23:48;41.65;;;17.60;;
72649;SDS011;61467;50.674;4.618;2024-01-11T10:26:15;37.97;;;18.02;;
72649;SDS011;61467;50.674;4.618;2024-01-11T10:28:45;38.50;;;17.57;;
72649;SDS011;61467;50.674;4.618;2024-01-11T10:31:12;38.75;;;17.45;;
72649;SDS011;61467;50.674;4.618;2024-01-11T10:33:40;37.35;;;17.90;;
72649;SDS011;61467;50.674;4.618;2024-01-11T10:36:07;35.40;;;16.70;;
72649;SDS011;61467;50.674;4.618;2024-01-11T10:38:35;41.13;;;17.30;;
72649;SDS011;61467;50.674;4.618;2024-01-11T10:41:05;40.67;;;16.60;;
72649;SDS011;61467;50.674;4.618;2024-01-11T10:43:34;40.05;;;17.80;;
72649;SDS011;61467;50.674;4.618;2024-01-11T10:46:05;29.30;;;15.68;;
72649;SDS011;61467;50.674;4.618;2024-01-11T10:48:33;37.25;;;17.92;;
72649;SDS011;61467;50.674;4.618;2024-01-11T10:51:07;36.47;;;17.27;;
72649;SDS011;61467;50.674;4.618;2024-01-11T10:53:40;35.60;;;18.70;;
72649;SDS011;61467;50.674;4.618;2024-01-11T10:56:11;36.78;;;16.60;;
72649;SDS011;61467;50.674;4.618;2024-01-11T10:58:39;36.60;;;17.58;;
72649;SDS011;61467;50.674;4.618;2024-01-11T11:01:08;34.25;;;17.35;;
72649;SDS011;61467;50.674;4.618;2024-01-11T11:03:36;34.60;;;16.17;;
72649;SDS011;61467;50.674;4.618;2024-01-11T11:06:04;38.93;;;17.57;;
72649;SDS011;61467;50.674;4.618;2024-01-11T11:08:33;34.28;;;18.25;;
72649;SDS011;61467;50.674;4.618;2024-01-11T11:11:02;37.47;;;18.15;;
72649;SDS011;61467;50.674;4.618;2024-01-11T11:13:31;38.90;;;17.90;;
72649;SDS011;61467;50.674;4.618;2024-01-11T11:16:00;36.22;;;17.25;;
72649;SDS011;61467;50.674;4.618;2024-01-11T11:18:30;35.50;;;16.87;;
72649;SDS011;61467;50.674;4.618;2024-01-11T11:21:00;39.38;;;18.20;;
72649;SDS011;61467;50.674;4.618;2024-01-11T11:23:27;33.97;;;16.42;;
72649;SDS011;61467;50.674;4.618;2024-01-11T11:25:54;39.70;;;18.02;;
72649;SDS011;61467;50.674;4.618;2024-01-11T11:28:22;38.85;;;18.73;;
72649;SDS011;61467;50.674;4.618;2024-01-11T11:30:49;36.50;;;17.53;;
72649;SDS011;61467;50.674;4.618;2024-01-11T11:33:19;37.90;;;18.50;;
72649;SDS011;61467;50.674;4.618;2024-01-11T11:35:48;37.42;;;17.98;;
72649;SDS011;61467;50.674;4.618;2024-01-11T11:38:18;36.47;;;18.15;;
72649;SDS011;61467;50.674;4.618;2024-01-11T11:40:46;36.90;;;17.42;;
72649;SDS011;61467;50.674;4.618;2024-01-11T11:43:15;35.67;;;17.13;;
72649;SDS011;61467;50.674;4.618;2024-01-11T11:45:45;36.42;;;18.02;;
72649;SDS011;61467;50.674;4.618;2024-01-11T11:51:16;37.80;;;17.02;;
72649;SDS011;61467;50.674;4.618;2024-01-11T11:53:46;41.47;;;19.15;;
72649;SDS011;61467;50.674;4.618;2024-01-11T11:56:14;40.97;;;18.90;;
72649;SDS011;61467;50.674;4.618;2024-01-11T11:58:43;40.97;;;20.88;;
72649;SDS011;61467;50.674;4.618;2024-01-11T12:01:11;39.30;;;18.90;;
72649;SDS011;61467;50.674;4.618;2024-01-11T12:03:40;35.33;;;16.95;;
72649;SDS011;61467;50.674;4.618;2024-01-11T12:06:11;38.20;;;18.55;;
72649;SDS011;61467;50.674;4.618;2024-01-11T12:08:42;35.50;;;17.40;;
72649;SDS011;61467;50.674;4.618;2024-01-11T12:11:09;38.08;;;18.02;;
72649;SDS011;61467;50.674;4.618;2024-01-11T12:13:38;35.95;;;16.67;;
72649;SDS011;61467;50.674;4.618;2024-01-11T12:16:06;30.52;;;16.33;;
72649;SDS011;61467;50.674;4.618;2024-01-11T12:18:33;36.78;;;17.35;;
72649;SDS011;61467;50.674;4.618;2024-01-11T12:21:00;37.40;;;17.60;;
72649;SDS011;61467;50.674;4.618;2024-01-11T12:23:27;33.22;;;16.45;;
72649;SDS011;61467;50.674;4.618;2024-01-11T12:25:59;37.72;;;17.92;;
72649;SDS011;61467;50.674;4.618;2024-01-11T12:28:28;37.67;;;16.98;;
72649;SDS011;61467;50.674;4.618;2024-01-11T12:30:55;41.33;;;19.00;;
72649;SDS011;61467;50.674;4.618;2024-01-11T12:33:22;37.73;;;17.07;;
72649;SDS011;61467;50.674;4.618;2024-01-11T12:35:50;31.05;;;15.18;;
72649;SDS011;61467;50.674;4.618;2024-01-11T12:38:19;35.85;;;16.63;;
72649;SDS011;61467;50.674;4.618;2024-01-11T12:40:45;32.38;;;15.43;;
72649;SDS011;61467;50.674;4.618;2024-01-11T12:43:14;31.92;;;16.38;;
72649;SDS011;61467;50.674;4.618;2024-01-11T12:45:42;31.03;;;15.20;;
72649;SDS011;61467;50.674;4.618;2024-01-11T12:48:09;30.27;;;15.68;;
72649;SDS011;61467;50.674;4.618;2024-01-11T12:50:39;30.90;;;16.45;;
72649;SDS011;61467;50.674;4.618;2024-01-11T12:53:07;33.30;;;15.95;;
72649;SDS011;61467;50.674;4.618;2024-01-11T12:55:34;31.83;;;15.18;;
72649;SDS011;61467;50.674;4.618;2024-01-11T12:58:05;31.33;;;16.40;;
72649;SDS011;61467;50.674;4.618;2024-01-11T13:00:33;31.17;;;15.60;;
72649;SDS011;61467;50.674;4.618;2024-01-11T13:03:03;35.65;;;16.23;;
72649;SDS011;61467;50.674;4.618;2024-01-11T13:05:32;31.10;;;15.35;;
72649;SDS011;61467;50.674;4.618;2024-01-11T13:08:02;30.02;;;15.75;;
72649;SDS011;61467;50.674;4.618;2024-01-11T13:10:29;33.57;;;15.77;;
72649;SDS011;61467;50.674;4.618;2024-01-11T13:12:58;31.15;;;14.77;;
72649;SDS011;61467;50.674;4.618;2024-01-11T13:15:26;30.77;;;14.90;;
72649;SDS011;61467;50.674;4.618;2024-01-11T13:17:55;32.55;;;15.43;;
72649;SDS011;61467;50.674;4.618;2024-01-11T13:20:22;35.22;;;15.80;;
72649;SDS011;61467;50.674;4.618;2024-01-11T13:22:49;35.03;;;16.60;;
72649;SDS011;61467;50.674;4.618;2024-01-11T13:25:19;33.92;;;16.27;;
72649;SDS011;61467;50.674;4.618;2024-01-11T13:27:46;32.33;;;15.25;;
72649;SDS011;61467;50.674;4.618;2024-01-11T13:30:14;34.22;;;16.02;;
72649;SDS011;61467;50.674;4.618;2024-01-11T13:32:41;35.42;;;14.88;;
72649;SDS011;61467;50.674;4.618;2024-01-11T13:35:09;29.97;;;14.77;;
72649;SDS011;61467;50.674;4.618;2024-01-11T13:37:36;31.55;;;14.23;;
72649;SDS011;61467;50.674;4.618;2024-01-11T13:40:05;31.13;;;15.95;;
72649;SDS011;61467;50.674;4.618;2024-01-11T13:42:34;29.25;;;14.95;;
72649;SDS011;61467;50.674;4.618;2024-01-11T13:45:01;31.27;;;15.18;;
72649;SDS011;61467;50.674;4.618;2024-01-11T13:47:28;30.47;;;13.63;;
72649;SDS011;61467;50.674;4.618;2024-01-11T13:49:55;30.83;;;13.55;;
72649;SDS011;61467;50.674;4.618;2024-01-11T13:52:23;26.88;;;13.00;;
72649;SDS011;61467;50.674;4.618;2024-01-11T13:54:50;26.75;;;13.90;;
72649;SDS011;61467;50.674;4.618;2024-01-11T13:57:17;29.35;;;14.02;;
72649;SDS011;61467;50.674;4.618;2024-01-11T13:59:44;27.87;;;13.37;;
72649;SDS011;61467;50.674;4.618;2024-01-11T14:02:11;23.63;;;12.27;;
72649;SDS011;61467;50.674;4.618;2024-01-11T14:04:38;24.80;;;12.95;;
72649;SDS011;61467;50.674;4.618;2024-01-11T14:07:05;25.00;;;12.77;;
72649;SDS011;61467;50.674;4.618;2024-01-11T14:09:34;26.48;;;13.82;;
72649;SDS011;61467;50.674;4.618;2024-01-11T14:12:00;26.43;;;13.10;;
72649;SDS011;61467;50.674;4.618;2024-01-11T14:14:27;26.88;;;12.75;;
72649;SDS011;61467;50.674;4.618;2024-01-11T14:16:54;25.13;;;13.15;;
72649;SDS011;61467;50.674;4.618;2024-01-11T14:19:21;24.38;;;12.07;;
72649;SDS011;61467;50.674;4.618;2024-01-11T14:21:48;20.73;;;12.07;;
72649;SDS011;61467;50.674;4.618;2024-01-11T14:24:15;20.53;;;10.77;;
72649;SDS011;61467;50.674;4.618;2024-01-11T14:26:44;25.40;;;11.70;;